sensor_id;sensor_type;location;lat;lon;timestamp;temperature;humidity
52543;DHT22;38449;52.696;6.186;2024-02-21T00:01:15;9.70;99.90
52543;DHT22;38449;52.696;6.186;2024-02-21T00:03:43;9.70;99.90
52543;DHT22;38449;52.696;6.186;2024-02-21T00:06:10;9.40;99.90
52543;DHT22;38449;52.696;6.186;2024-02-21T00:08:37;9.60;99.90
52543;DHT22;38449;52.696;6.186;2024-02-21T00:11:03;9.40;99.90
52543;DHT22;38449;52.696;6.186;2024-02-21T00:13:29;9.40;99.90
52543;DHT22;38449;52.696;6.186;2024-02-21T00:15:56;9.50;99.90
52543;DHT22;38449;52.696;6.186;2024-02-21T00:18:23;9.60;99.90
52543;DHT22;38449;52.696;6.186;2024-02-21T00:20:49;9.30;99.90
52543;DHT22;38449;52.696;6.186;2024-02-21T00:23:16;9.30;99.90
52543;DHT22;38449;52.696;6.186;2024-02-21T00:25:43;9.70;99.90
52543;DHT22;38449;52.696;6.186;2024-02-21T00:28:11;9.40;99.90
52543;DHT22;38449;52.696;6.186;2024-02-21T00:30:38;9.50;99.90
52543;DHT22;38449;52.696;6.186;2024-02-21T00:33:04;9.50;99.90
52543;DHT22;38449;52.696;6.186;2024-02-21T00:35:31;9.30;99.90
52543;DHT22;38449;52.696;6.186;2024-02-21T00:37:57;9.30;99.90
52543;DHT22;38449;52.696;6.186;2024-02-21T00:40:25;9.30;99.90
52543;DHT22;38449;52.696;6.186;2024-02-21T00:42:51;9.60;99.90
52543;DHT22;38449;52.696;6.186;2024-02-21T00:45:18;9.30;99.90
52543;DHT22;38449;52.696;6.186;2024-02-21T00:47:44;9.50;99.90
52543;DHT22;38449;52.696;6.186;2024-02-21T00:50:11;9.70;99.90
52543;DHT22;38449;52.696;6.186;2024-02-21T00:52:37;9.50;99.90
52543;DHT22;38449;52.696;6.186;2024-02-21T00:55:04;9.60;99.90
52543;DHT22;38449;52.696;6.186;2024-02-21T00:57:31;9.20;99.90
52543;DHT22;38449;52.696;6.186;2024-02-21T00:59:58;9.50;99.90
52543;DHT22;38449;52.696;6.186;2024-02-21T01:02:24;9.50;99.90
52543;DHT22;38449;52.696;6.186;2024-02-21T01:04:50;9.50;99.90
52543;DHT22;38449;52.696;6.186;2024-02-21T01:07:17;9.60;99.90
52543;DHT22;38449;52.696;6.186;2024-02-21T01:09:45;9.10;99.90
52543;DHT22;38449;52.696;6.186;2024-02-21T01:12:11;9.50;99.90
52543;DHT22;38449;52.696;6.186;2024-02-21T01:14:38;9.60;99.90
52543;DHT22;38449;52.696;6.186;2024-02-21T01:17:04;9.50;99.90
52543;DHT22;38449;52.696;6.186;2024-02-21T01:19:39;9.20;99.90
52543;DHT22;38449;52.696;6.186;2024-02-21T01:22:05;9.50;99.90
52543;DHT22;38449;52.696;6.186;2024-02-21T01:24:31;9.40;99.90
52543;DHT22;38449;52.696;6.186;2024-02-21T01:26:57;9.50;99.90
52543;DHT22;38449;52.696;6.186;2024-02-21T01:29:24;9.20;99.90
52543;DHT22;38449;52.696;6.186;2024-02-21T01:31:51;9.20;99.90
52543;DHT22;38449;52.696;6.186;2024-02-21T01:34:17;9.50;99.90
52543;DHT22;38449;52.696;6.186;2024-02-21T01:36:45;9.20;99.90
52543;DHT22;38449;52.696;6.186;2024-02-21T01:39:11;9.20;99.90
52543;DHT22;38449;52.696;6.186;2024-02-21T01:41:38;9.50;99.90
52543;DHT22;38449;52.696;6.186;2024-02-21T01:44:04;9.60;99.90
52543;DHT22;38449;52.696;6.186;2024-02-21T01:46:30;9.40;99.90
52543;DHT22;38449;52.696;6.186;2024-02-21T01:48:58;9.20;99.90
52543;DHT22;38449;52.696;6.186;2024-02-21T01:51:24;9.30;99.90
52543;DHT22;38449;52.696;6.186;2024-02-21T01:53:52;9.20;99.90
52543;DHT22;38449;52.696;6.186;2024-02-21T01:56:19;9.50;99.90
52543;DHT22;38449;52.696;6.186;2024-02-21T01:58:48;9.30;99.90
52543;DHT22;38449;52.696;6.186;2024-02-21T02:01:15;9.10;99.90
52543;DHT22;38449;52.696;6.186;2024-02-21T02:03:45;9.30;99.90
52543;DHT22;38449;52.696;6.186;2024-02-21T02:06:12;9.60;99.90
52543;DHT22;38449;52.696;6.186;2024-02-21T02:08:38;9.20;99.90
52543;DHT22;38449;52.696;6.186;2024-02-21T02:11:04;9.20;99.90
52543;DHT22;38449;52.696;6.186;2024-02-21T02:13:31;9.00;99.90
52543;DHT22;38449;52.696;6.186;2024-02-21T02:15:59;9.40;99.90
52543;DHT22;38449;52.696;6.186;2024-02-21T02:18:26;8.80;99.90
52543;DHT22;38449;52.696;6.186;2024-02-21T02:20:52;9.20;99.90
52543;DHT22;38449;52.696;6.186;2024-02-21T02:23:29;8.80;99.90
52543;DHT22;38449;52.696;6.186;2024-02-21T02:25:57;8.80;99.90
52543;DHT22;38449;52.696;6.186;2024-02-21T02:28:24;8.80;99.90
52543;DHT22;38449;52.696;6.186;2024-02-21T02:30:51;9.20;99.90
52543;DHT22;38449;52.696;6.186;2024-02-21T02:33:18;8.80;99.90
52543;DHT22;38449;52.696;6.186;2024-02-21T02:35:46;9.00;99.90
52543;DHT22;38449;52.696;6.186;2024-02-21T02:38:13;8.90;99.90
52543;DHT22;38449;52.696;6.186;2024-02-21T02:40:39;9.10;99.90
52543;DHT22;38449;52.696;6.186;2024-02-21T02:43:09;9.50;99.90
52543;DHT22;38449;52.696;6.186;2024-02-21T02:45:35;9.00;99.90
52543;DHT22;38449;52.696;6.186;2024-02-21T02:48:02;9.50;99.90
52543;DHT22;38449;52.696;6.186;2024-02-21T02:50:29;9.50;99.90
52543;DHT22;38449;52.696;6.186;2024-02-21T02:52:55;9.40;99.90
52543;DHT22;38449;52.696;6.186;2024-02-21T02:55:21;9.00;99.90
52543;DHT22;38449;52.696;6.186;2024-02-21T02:57:49;9.10;99.90
52543;DHT22;38449;52.696;6.186;2024-02-21T03:00:16;8.70;99.90
52543;DHT22;38449;52.696;6.186;2024-02-21T03:02:44;8.70;99.90
52543;DHT22;38449;52.696;6.186;2024-02-21T03:05:18;8.90;99.90
52543;DHT22;38449;52.696;6.186;2024-02-21T03:07:45;9.40;99.90
52543;DHT22;38449;52.696;6.186;2024-02-21T03:10:12;9.40;99.90
52543;DHT22;38449;52.696;6.186;2024-02-21T03:12:39;8.90;99.90
52543;DHT22;38449;52.696;6.186;2024-02-21T03:15:06;9.00;99.90
52543;DHT22;38449;52.696;6.186;2024-02-21T03:17:32;9.40;99.90
52543;DHT22;38449;52.696;6.186;2024-02-21T03:20:02;8.90;99.90
52543;DHT22;38449;52.696;6.186;2024-02-21T03:22:37;9.30;99.90
52543;DHT22;38449;52.696;6.186;2024-02-21T03:25:04;8.80;99.90
52543;DHT22;38449;52.696;6.186;2024-02-21T03:27:31;9.00;99.90
52543;DHT22;38449;52.696;6.186;2024-02-21T03:29:57;9.40;99.90
52543;DHT22;38449;52.696;6.186;2024-02-21T03:32:23;9.10;99.90
52543;DHT22;38449;52.696;6.186;2024-02-21T03:34:50;9.20;99.90
52543;DHT22;38449;52.696;6.186;2024-02-21T03:37:16;8.70;99.90
52543;DHT22;38449;52.696;6.186;2024-02-21T03:39:42;8.80;99.90
52543;DHT22;38449;52.696;6.186;2024-02-21T03:42:09;9.30;99.90
52543;DHT22;38449;52.696;6.186;2024-02-21T03:44:36;9.40;99.90
52543;DHT22;38449;52.696;6.186;2024-02-21T03:47:02;8.80;99.90
52543;DHT22;38449;52.696;6.186;2024-02-21T03:49:29;8.70;99.90
52543;DHT22;38449;52.696;6.186;2024-02-21T03:51:56;9.10;99.90
52543;DHT22;38449;52.696;6.186;2024-02-21T03:54:22;9.00;99.90
52543;DHT22;38449;52.696;6.186;2024-02-21T03:56:48;8.70;99.90
52543;DHT22;38449;52.696;6.186;2024-02-21T03:59:15;9.40;99.90
52543;DHT22;38449;52.696;6.186;2024-02-21T04:01:41;8.80;99.90
52543;DHT22;38449;52.696;6.186;2024-02-21T04:04:08;8.80;99.90
52543;DHT22;38449;52.696;6.186;2024-02-21T04:06:34;9.00;99.90
52543;DHT22;38449;52.696;6.186;2024-02-21T04:09:00;9.40;99.90
52543;DHT22;38449;52.696;6.186;2024-02-21T04:11:27;8.80;99.90
52543;DHT22;38449;52.696;6.186;2024-02-21T04:13:54;8.80;99.90
52543;DHT22;38449;52.696;6.186;2024-02-21T04:16:21;8.80;99.90
52543;DHT22;38449;52.696;6.186;2024-02-21T04:18:48;9.40;99.90
52543;DHT22;38449;52.696;6.186;2024-02-21T04:21:17;9.40;99.90
52543;DHT22;38449;52.696;6.186;2024-02-21T04:23:43;9.20;99.90
52543;DHT22;38449;52.696;6.186;2024-02-21T04:26:12;9.30;99.90
52543;DHT22;38449;52.696;6.186;2024-02-21T04:28:38;8.80;99.90
52543;DHT22;38449;52.696;6.186;2024-02-21T04:31:07;8.80;99.90
52543;DHT22;38449;52.696;6.186;2024-02-21T04:33:33;9.40;99.90
52543;DHT22;38449;52.696;6.186;2024-02-21T04:35:59;8.80;99.90
52543;DHT22;38449;52.696;6.186;2024-02-21T04:38:26;9.40;99.90
52543;DHT22;38449;52.696;6.186;2024-02-21T04:40:53;9.30;99.90
52543;DHT22;38449;52.696;6.186;2024-02-21T04:43:20;9.40;99.90
52543;DHT22;38449;52.696;6.186;2024-02-21T04:45:50;9.40;99.90
52543;DHT22;38449;52.696;6.186;2024-02-21T04:48:16;8.90;99.90
52543;DHT22;38449;52.696;6.186;2024-02-21T04:50:43;9.40;99.90
52543;DHT22;38449;52.696;6.186;2024-02-21T04:53:09;9.10;99.90
52543;DHT22;38449;52.696;6.186;2024-02-21T04:55:36;8.90;99.90
52543;DHT22;38449;52.696;6.186;2024-02-21T04:58:03;8.80;99.90
52543;DHT22;38449;52.696;6.186;2024-02-21T05:00:29;9.10;99.90
52543;DHT22;38449;52.696;6.186;2024-02-21T05:02:56;9.30;99.90
52543;DHT22;38449;52.696;6.186;2024-02-21T05:05:23;8.90;99.90
52543;DHT22;38449;52.696;6.186;2024-02-21T05:07:51;8.90;99.90
52543;DHT22;38449;52.696;6.186;2024-02-21T05:10:17;9.40;99.90
52543;DHT22;38449;52.696;6.186;2024-02-21T05:12:46;9.40;99.90
52543;DHT22;38449;52.696;6.186;2024-02-21T05:15:12;8.90;99.90
52543;DHT22;38449;52.696;6.186;2024-02-21T05:17:38;9.30;99.90
52543;DHT22;38449;52.696;6.186;2024-02-21T05:20:05;8.90;99.90
52543;DHT22;38449;52.696;6.186;2024-02-21T05:22:32;9.40;99.90
52543;DHT22;38449;52.696;6.186;2024-02-21T05:24:58;9.00;99.90
52543;DHT22;38449;52.696;6.186;2024-02-21T05:27:24;9.10;99.90
52543;DHT22;38449;52.696;6.186;2024-02-21T05:29:51;9.10;99.90
52543;DHT22;38449;52.696;6.186;2024-02-21T05:32:17;9.00;99.90
52543;DHT22;38449;52.696;6.186;2024-02-21T05:34:43;8.90;99.90
52543;DHT22;38449;52.696;6.186;2024-02-21T05:37:12;9.30;99.90
52543;DHT22;38449;52.696;6.186;2024-02-21T05:39:38;9.40;99.90
52543;DHT22;38449;52.696;6.186;2024-02-21T05:42:05;8.90;99.90
52543;DHT22;38449;52.696;6.186;2024-02-21T05:44:31;8.90;99.90
52543;DHT22;38449;52.696;6.186;2024-02-21T05:46:57;9.40;99.90
52543;DHT22;38449;52.696;6.186;2024-02-21T05:49:24;9.10;99.90
52543;DHT22;38449;52.696;6.186;2024-02-21T05:51:50;9.20;99.90
52543;DHT22;38449;52.696;6.186;2024-02-21T05:54:17;9.40;99.90
52543;DHT22;38449;52.696;6.186;2024-02-21T05:56:47;8.90;99.90
52543;DHT22;38449;52.696;6.186;2024-02-21T05:59:14;9.40;99.90
52543;DHT22;38449;52.696;6.186;2024-02-21T06:01:40;8.90;99.90
52543;DHT22;38449;52.696;6.186;2024-02-21T06:04:06;9.00;99.90
52543;DHT22;38449;52.696;6.186;2024-02-21T06:06:33;9.50;99.90
52543;DHT22;38449;52.696;6.186;2024-02-21T06:09:00;9.40;99.90
52543;DHT22;38449;52.696;6.186;2024-02-21T06:11:30;9.10;99.90
52543;DHT22;38449;52.696;6.186;2024-02-21T06:13:57;9.50;99.90
52543;DHT22;38449;52.696;6.186;2024-02-21T06:16:24;8.90;99.90
52543;DHT22;38449;52.696;6.186;2024-02-21T06:18:50;9.40;99.90
52543;DHT22;38449;52.696;6.186;2024-02-21T06:21:16;9.00;99.90
52543;DHT22;38449;52.696;6.186;2024-02-21T06:23:43;9.40;99.90
52543;DHT22;38449;52.696;6.186;2024-02-21T06:26:09;9.40;99.90
52543;DHT22;38449;52.696;6.186;2024-02-21T06:28:36;9.40;99.90
52543;DHT22;38449;52.696;6.186;2024-02-21T06:31:02;9.40;99.90
52543;DHT22;38449;52.696;6.186;2024-02-21T06:33:31;9.00;99.90
52543;DHT22;38449;52.696;6.186;2024-02-21T06:35:58;9.30;99.90
52543;DHT22;38449;52.696;6.186;2024-02-21T06:38:24;9.00;99.90
52543;DHT22;38449;52.696;6.186;2024-02-21T06:40:51;9.00;99.90
52543;DHT22;38449;52.696;6.186;2024-02-21T06:43:20;8.90;99.90
52543;DHT22;38449;52.696;6.186;2024-02-21T06:45:46;9.20;99.90
52543;DHT22;38449;52.696;6.186;2024-02-21T06:48:17;9.30;99.90
52543;DHT22;38449;52.696;6.186;2024-02-21T06:50:45;9.00;99.90
52543;DHT22;38449;52.696;6.186;2024-02-21T06:53:13;9.30;99.90
52543;DHT22;38449;52.696;6.186;2024-02-21T06:55:40;9.10;99.90
52543;DHT22;38449;52.696;6.186;2024-02-21T06:58:06;9.00;99.90
52543;DHT22;38449;52.696;6.186;2024-02-21T07:00:39;9.10;99.90
52543;DHT22;38449;52.696;6.186;2024-02-21T07:03:07;9.20;99.90
52543;DHT22;38449;52.696;6.186;2024-02-21T07:05:33;8.90;99.90
52543;DHT22;38449;52.696;6.186;2024-02-21T07:08:00;9.30;99.90
52543;DHT22;38449;52.696;6.186;2024-02-21T07:10:26;8.90;99.90
52543;DHT22;38449;52.696;6.186;2024-02-21T07:12:54;8.90;99.90
52543;DHT22;38449;52.696;6.186;2024-02-21T07:15:20;9.40;99.90
52543;DHT22;38449;52.696;6.186;2024-02-21T07:17:47;9.30;99.90
52543;DHT22;38449;52.696;6.186;2024-02-21T07:20:13;9.30;99.90
52543;DHT22;38449;52.696;6.186;2024-02-21T07:22:39;9.30;99.90
52543;DHT22;38449;52.696;6.186;2024-02-21T07:25:06;9.10;99.90
52543;DHT22;38449;52.696;6.186;2024-02-21T07:27:32;8.90;99.90
52543;DHT22;38449;52.696;6.186;2024-02-21T07:29:59;9.40;99.90
52543;DHT22;38449;52.696;6.186;2024-02-21T07:32:25;9.00;99.90
52543;DHT22;38449;52.696;6.186;2024-02-21T07:34:52;9.30;99.90
52543;DHT22;38449;52.696;6.186;2024-02-21T07:37:18;9.20;99.90
52543;DHT22;38449;52.696;6.186;2024-02-21T07:39:45;9.30;99.90
52543;DHT22;38449;52.696;6.186;2024-02-21T07:42:11;9.40;99.90
52543;DHT22;38449;52.696;6.186;2024-02-21T07:44:37;8.80;99.90
52543;DHT22;38449;52.696;6.186;2024-02-21T07:47:04;8.90;99.90
52543;DHT22;38449;52.696;6.186;2024-02-21T07:49:31;9.00;99.90
52543;DHT22;38449;52.696;6.186;2024-02-21T07:52:00;9.30;99.90
52543;DHT22;38449;52.696;6.186;2024-02-21T07:54:27;8.90;99.90
52543;DHT22;38449;52.696;6.186;2024-02-21T07:56:54;8.90;99.90
52543;DHT22;38449;52.696;6.186;2024-02-21T07:59:20;9.40;99.90
52543;DHT22;38449;52.696;6.186;2024-02-21T08:01:47;9.00;99.90
52543;DHT22;38449;52.696;6.186;2024-02-21T08:04:13;9.20;99.90
52543;DHT22;38449;52.696;6.186;2024-02-21T08:06:40;9.00;99.90
52543;DHT22;38449;52.696;6.186;2024-02-21T08:09:06;9.40;99.90
52543;DHT22;38449;52.696;6.186;2024-02-21T08:11:33;9.00;99.90
52543;DHT22;38449;52.696;6.186;2024-02-21T08:13:59;9.30;99.90
52543;DHT22;38449;52.696;6.186;2024-02-21T08:16:27;8.90;99.90
52543;DHT22;38449;52.696;6.186;2024-02-21T08:18:53;8.90;99.90
52543;DHT22;38449;52.696;6.186;2024-02-21T08:21:19;9.30;99.90
52543;DHT22;38449;52.696;6.186;2024-02-21T08:23:45;9.40;99.90
52543;DHT22;38449;52.696;6.186;2024-02-21T08:26:12;9.30;99.90
52543;DHT22;38449;52.696;6.186;2024-02-21T08:28:38;8.90;99.90
52543;DHT22;38449;52.696;6.186;2024-02-21T08:31:04;9.00;99.90
52543;DHT22;38449;52.696;6.186;2024-02-21T08:33:31;9.00;99.90
52543;DHT22;38449;52.696;6.186;2024-02-21T08:35:57;9.40;99.90
52543;DHT22;38449;52.696;6.186;2024-02-21T08:38:23;9.20;99.90
52543;DHT22;38449;52.696;6.186;2024-02-21T08:40:51;9.30;99.90
52543;DHT22;38449;52.696;6.186;2024-02-21T08:43:18;9.00;99.90
52543;DHT22;38449;52.696;6.186;2024-02-21T08:45:44;9.20;99.90
52543;DHT22;38449;52.696;6.186;2024-02-21T08:48:13;9.10;99.90
52543;DHT22;38449;52.696;6.186;2024-02-21T08:50:40;9.10;99.90
52543;DHT22;38449;52.696;6.186;2024-02-21T08:53:07;9.50;99.90
52543;DHT22;38449;52.696;6.186;2024-02-21T08:55:33;9.40;99.90
52543;DHT22;38449;52.696;6.186;2024-02-21T08:58:01;9.10;99.90
52543;DHT22;38449;52.696;6.186;2024-02-21T09:00:29;9.60;99.90
52543;DHT22;38449;52.696;6.186;2024-02-21T09:02:55;9.40;99.90
52543;DHT22;38449;52.696;6.186;2024-02-21T09:05:25;9.50;99.90
52543;DHT22;38449;52.696;6.186;2024-02-21T09:07:51;9.60;99.90
52543;DHT22;38449;52.696;6.186;2024-02-21T09:10:18;9.60;99.90
52543;DHT22;38449;52.696;6.186;2024-02-21T09:12:45;9.30;99.90
52543;DHT22;38449;52.696;6.186;2024-02-21T09:15:11;9.60;99.90
52543;DHT22;38449;52.696;6.186;2024-02-21T09:17:37;9.70;99.90
52543;DHT22;38449;52.696;6.186;2024-02-21T09:20:06;9.50;99.90
52543;DHT22;38449;52.696;6.186;2024-02-21T09:22:35;9.40;99.90
52543;DHT22;38449;52.696;6.186;2024-02-21T09:25:02;9.60;99.90
52543;DHT22;38449;52.696;6.186;2024-02-21T09:27:29;9.70;99.90
52543;DHT22;38449;52.696;6.186;2024-02-21T09:29:55;9.70;99.90
52543;DHT22;38449;52.696;6.186;2024-02-21T09:32:23;9.60;99.90
52543;DHT22;38449;52.696;6.186;2024-02-21T09:34:49;9.40;99.90
52543;DHT22;38449;52.696;6.186;2024-02-21T09:37:15;9.40;99.90
52543;DHT22;38449;52.696;6.186;2024-02-21T09:39:42;9.60;99.90
52543;DHT22;38449;52.696;6.186;2024-02-21T09:42:11;9.70;99.90
52543;DHT22;38449;52.696;6.186;2024-02-21T09:44:40;9.50;99.90
52543;DHT22;38449;52.696;6.186;2024-02-21T09:47:10;9.80;99.90
52543;DHT22;38449;52.696;6.186;2024-02-21T09:49:42;9.50;99.90
52543;DHT22;38449;52.696;6.186;2024-02-21T09:52:10;9.70;99.90
52543;DHT22;38449;52.696;6.186;2024-02-21T09:54:39;9.80;99.90
52543;DHT22;38449;52.696;6.186;2024-02-21T09:57:09;9.90;99.90
52543;DHT22;38449;52.696;6.186;2024-02-21T09:59:37;9.40;99.90
52543;DHT22;38449;52.696;6.186;2024-02-21T10:02:04;9.70;99.90
52543;DHT22;38449;52.696;6.186;2024-02-21T10:04:30;9.40;99.90
52543;DHT22;38449;52.696;6.186;2024-02-21T10:06:58;9.50;99.90
52543;DHT22;38449;52.696;6.186;2024-02-21T10:09:25;9.40;99.90
52543;DHT22;38449;52.696;6.186;2024-02-21T10:12:11;9.80;99.90
52543;DHT22;38449;52.696;6.186;2024-02-21T10:14:38;9.70;99.90
52543;DHT22;38449;52.696;6.186;2024-02-21T10:17:04;9.50;99.90
52543;DHT22;38449;52.696;6.186;2024-02-21T10:19:35;9.80;99.90
52543;DHT22;38449;52.696;6.186;2024-02-21T10:22:08;9.70;99.90
52543;DHT22;38449;52.696;6.186;2024-02-21T10:24:37;9.90;99.90
52543;DHT22;38449;52.696;6.186;2024-02-21T10:27:06;9.80;99.90
52543;DHT22;38449;52.696;6.186;2024-02-21T10:29:35;9.70;99.90
52543;DHT22;38449;52.696;6.186;2024-02-21T10:32:10;9.70;99.90
52543;DHT22;38449;52.696;6.186;2024-02-21T10:34:41;9.90;99.90
52543;DHT22;38449;52.696;6.186;2024-02-21T10:37:11;9.90;99.90
52543;DHT22;38449;52.696;6.186;2024-02-21T10:39:41;9.60;99.90
52543;DHT22;38449;52.696;6.186;2024-02-21T10:42:11;9.90;99.90
52543;DHT22;38449;52.696;6.186;2024-02-21T10:44:38;9.80;99.90
52543;DHT22;38449;52.696;6.186;2024-02-21T10:47:11;9.90;99.90
52543;DHT22;38449;52.696;6.186;2024-02-21T10:49:40;10.00;99.90
52543;DHT22;38449;52.696;6.186;2024-02-21T10:55:04;10.00;99.90
52543;DHT22;38449;52.696;6.186;2024-02-21T10:57:31;9.90;99.90
52543;DHT22;38449;52.696;6.186;2024-02-21T10:59:59;10.10;99.90
52543;DHT22;38449;52.696;6.186;2024-02-21T11:02:27;10.00;99.90
52543;DHT22;38449;52.696;6.186;2024-02-21T11:04:56;10.10;99.90
52543;DHT22;38449;52.696;6.186;2024-02-21T11:07:24;10.00;99.90
52543;DHT22;38449;52.696;6.186;2024-02-21T11:09:52;10.20;99.90
52543;DHT22;38449;52.696;6.186;2024-02-21T11:12:23;10.20;99.90
52543;DHT22;38449;52.696;6.186;2024-02-21T11:14:50;10.00;99.90
52543;DHT22;38449;52.696;6.186;2024-02-21T11:17:19;10.10;99.90
52543;DHT22;38449;52.696;6.186;2024-02-21T11:19:53;10.00;99.90
52543;DHT22;38449;52.696;6.186;2024-02-21T11:22:20;9.90;99.90
52543;DHT22;38449;52.696;6.186;2024-02-21T11:24:48;9.90;99.90
52543;DHT22;38449;52.696;6.186;2024-02-21T11:27:16;9.90;99.90
52543;DHT22;38449;52.696;6.186;2024-02-21T11:29:54;10.00;99.90
52543;DHT22;38449;52.696;6.186;2024-02-21T11:32:21;9.90;99.90
52543;DHT22;38449;52.696;6.186;2024-02-21T11:35:01;10.00;99.90
52543;DHT22;38449;52.696;6.186;2024-02-21T11:37:31;10.20;99.90
52543;DHT22;38449;52.696;6.186;2024-02-21T11:40:00;10.20;99.90
52543;DHT22;38449;52.696;6.186;2024-02-21T11:42:27;10.00;99.90
52543;DHT22;38449;52.696;6.186;2024-02-21T11:44:56;10.00;99.90
52543;DHT22;38449;52.696;6.186;2024-02-21T11:47:23;10.10;99.90
52543;DHT22;38449;52.696;6.186;2024-02-21T11:49:50;10.10;99.90
52543;DHT22;38449;52.696;6.186;2024-02-21T11:52:24;9.90;99.90
52543;DHT22;38449;52.696;6.186;2024-02-21T11:54:54;10.00;99.90
52543;DHT22;38449;52.696;6.186;2024-02-21T11:57:24;10.10;99.90
52543;DHT22;38449;52.696;6.186;2024-02-21T11:59:51;10.00;99.90
52543;DHT22;38449;52.696;6.186;2024-02-21T12:02:18;10.10;99.90
52543;DHT22;38449;52.696;6.186;2024-02-21T12:04:47;10.00;99.90
52543;DHT22;38449;52.696;6.186;2024-02-21T12:07:15;9.90;99.90
52543;DHT22;38449;52.696;6.186;2024-02-21T12:09:42;10.10;99.90
52543;DHT22;38449;52.696;6.186;2024-02-21T12:12:08;9.90;99.90
52543;DHT22;38449;52.696;6.186;2024-02-21T12:14:35;10.00;99.90
52543;DHT22;38449;52.696;6.186;2024-02-21T12:17:04;10.20;99.90
52543;DHT22;38449;52.696;6.186;2024-02-21T12:19:32;10.20;99.90
52543;DHT22;38449;52.696;6.186;2024-02-21T12:22:00;10.00;99.90
52543;DHT22;38449;52.696;6.186;2024-02-21T12:24:28;10.00;99.90
52543;DHT22;38449;52.696;6.186;2024-02-21T12:26:56;9.90;99.90
52543;DHT22;38449;52.696;6.186;2024-02-21T12:29:23;10.20;99.90
52543;DHT22;38449;52.696;6.186;2024-02-21T12:31:51;10.00;99.90
52543;DHT22;38449;52.696;6.186;2024-02-21T12:34:18;10.00;99.90
52543;DHT22;38449;52.696;6.186;2024-02-21T12:36:45;10.20;99.90
52543;DHT22;38449;52.696;6.186;2024-02-21T12:39:13;10.10;99.90
52543;DHT22;38449;52.696;6.186;2024-02-21T12:41:40;10.20;99.90
52543;DHT22;38449;52.696;6.186;2024-02-21T12:44:07;10.10;99.90
52543;DHT22;38449;52.696;6.186;2024-02-21T12:46:34;10.10;99.90
52543;DHT22;38449;52.696;6.186;2024-02-21T12:49:02;10.10;99.90
52543;DHT22;38449;52.696;6.186;2024-02-21T12:51:31;10.30;99.90
52543;DHT22;38449;52.696;6.186;2024-02-21T12:53:57;10.20;99.90
52543;DHT22;38449;52.696;6.186;2024-02-21T12:56:26;10.10;99.90
52543;DHT22;38449;52.696;6.186;2024-02-21T12:58:53;10.30;99.90
52543;DHT22;38449;52.696;6.186;2024-02-21T13:01:21;10.20;99.90
52543;DHT22;38449;52.696;6.186;2024-02-21T13:03:47;10.00;99.90
52543;DHT22;38449;52.696;6.186;2024-02-21T13:06:14;10.20;99.90
52543;DHT22;38449;52.696;6.186;2024-02-21T13:08:40;10.20;99.90
52543;DHT22;38449;52.696;6.186;2024-02-21T13:11:07;10.40;99.90
52543;DHT22;38449;52.696;6.186;2024-02-21T13:13:33;10.40;99.90
52543;DHT22;38449;52.696;6.186;2024-02-21T13:16:00;10.30;99.90
52543;DHT22;38449;52.696;6.186;2024-02-21T13:18:26;10.40;99.90
52543;DHT22;38449;52.696;6.186;2024-02-21T13:20:52;10.20;99.90
52543;DHT22;38449;52.696;6.186;2024-02-21T13:23:19;10.40;99.90
52543;DHT22;38449;52.696;6.186;2024-02-21T13:25:47;10.50;99.90
52543;DHT22;38449;52.696;6.186;2024-02-21T13:28:15;10.50;99.90
52543;DHT22;38449;52.696;6.186;2024-02-21T13:30:43;10.40;99.90
52543;DHT22;38449;52.696;6.186;2024-02-21T13:33:09;10.50;99.90
52543;DHT22;38449;52.696;6.186;2024-02-21T13:35:38;10.50;99.90
52543;DHT22;38449;52.696;6.186;2024-02-21T13:38:05;10.60;99.90
52543;DHT22;38449;52.696;6.186;2024-02-21T13:40:31;10.70;99.90
52543;DHT22;38449;52.696;6.186;2024-02-21T13:42:57;10.60;99.90
52543;DHT22;38449;52.696;6.186;2024-02-21T13:45:26;10.50;99.90
52543;DHT22;38449;52.696;6.186;2024-02-21T13:47:53;10.50;99.90
52543;DHT22;38449;52.696;6.186;2024-02-21T13:50:21;10.60;99.90
52543;DHT22;38449;52.696;6.186;2024-02-21T13:52:48;10.60;99.90
52543;DHT22;38449;52.696;6.186;2024-02-21T13:55:15;10.40;99.90
52543;DHT22;38449;52.696;6.186;2024-02-21T13:57:41;10.30;99.90
52543;DHT22;38449;52.696;6.186;2024-02-21T14:00:08;10.30;99.90
52543;DHT22;38449;52.696;6.186;2024-02-21T14:02:37;10.40;99.90
52543;DHT22;38449;52.696;6.186;2024-02-21T14:05:03;10.30;99.90
52543;DHT22;38449;52.696;6.186;2024-02-21T14:07:32;10.50;99.90
52543;DHT22;38449;52.696;6.186;2024-02-21T14:10:01;10.40;99.90
52543;DHT22;38449;52.696;6.186;2024-02-21T14:12:28;10.50;99.90
52543;DHT22;38449;52.696;6.186;2024-02-21T14:14:54;10.50;99.90
52543;DHT22;38449;52.696;6.186;2024-02-21T14:17:23;10.50;99.90
52543;DHT22;38449;52.696;6.186;2024-02-21T14:19:50;10.40;99.90
52543;DHT22;38449;52.696;6.186;2024-02-21T14:22:17;10.30;99.90
52543;DHT22;38449;52.696;6.186;2024-02-21T14:24:45;10.40;99.90
52543;DHT22;38449;52.696;6.186;2024-02-21T14:27:11;10.40;99.90
52543;DHT22;38449;52.696;6.186;2024-02-21T14:29:38;10.20;99.90
52543;DHT22;38449;52.696;6.186;2024-02-21T14:32:05;10.40;99.90
52543;DHT22;38449;52.696;6.186;2024-02-21T14:34:32;10.40;99.90
52543;DHT22;38449;52.696;6.186;2024-02-21T14:36:58;10.30;99.90
52543;DHT22;38449;52.696;6.186;2024-02-21T14:39:24;10.10;99.90
52543;DHT22;38449;52.696;6.186;2024-02-21T14:41:50;10.20;99.90
52543;DHT22;38449;52.696;6.186;2024-02-21T14:44:17;10.10;99.90
52543;DHT22;38449;52.696;6.186;2024-02-21T14:46:45;10.30;99.90
52543;DHT22;38449;52.696;6.186;2024-02-21T14:49:12;10.30;99.90
52543;DHT22;38449;52.696;6.186;2024-02-21T14:51:38;10.10;99.90
52543;DHT22;38449;52.696;6.186;2024-02-21T14:54:07;10.20;99.90
52543;DHT22;38449;52.696;6.186;2024-02-21T14:56:34;10.30;99.90
52543;DHT22;38449;52.696;6.186;2024-02-21T14:59:01;10.10;99.90
52543;DHT22;38449;52.696;6.186;2024-02-21T15:01:27;10.20;99.90
52543;DHT22;38449;52.696;6.186;2024-02-21T15:03:53;10.00;99.90
52543;DHT22;38449;52.696;6.186;2024-02-21T15:06:20;10.20;99.90
52543;DHT22;38449;52.696;6.186;2024-02-21T15:08:47;10.00;99.90
52543;DHT22;38449;52.696;6.186;2024-02-21T15:11:16;10.00;99.90
52543;DHT22;38449;52.696;6.186;2024-02-21T15:13:46;10.20;99.90
52543;DHT22;38449;52.696;6.186;2024-02-21T15:16:14;10.30;99.90
52543;DHT22;38449;52.696;6.186;2024-02-21T15:18:42;10.20;99.90
52543;DHT22;38449;52.696;6.186;2024-02-21T15:21:08;10.00;99.90
52543;DHT22;38449;52.696;6.186;2024-02-21T15:23:41;10.20;99.90
52543;DHT22;38449;52.696;6.186;2024-02-21T15:26:08;10.20;99.90
52543;DHT22;38449;52.696;6.186;2024-02-21T15:28:34;10.10;99.90
52543;DHT22;38449;52.696;6.186;2024-02-21T15:31:00;10.30;99.90
52543;DHT22;38449;52.696;6.186;2024-02-21T15:33:27;10.10;99.90
52543;DHT22;38449;52.696;6.186;2024-02-21T15:35:53;10.00;99.90
52543;DHT22;38449;52.696;6.186;2024-02-21T15:38:20;10.20;99.90
52543;DHT22;38449;52.696;6.186;2024-02-21T15:40:47;10.00;99.90
52543;DHT22;38449;52.696;6.186;2024-02-21T15:43:13;10.10;99.90
52543;DHT22;38449;52.696;6.186;2024-02-21T15:45:39;10.00;99.90